sensor_id;sensor_type;location;lat;lon;timestamp;pressure;altitude;pressure_sealevel;temperature;humidity
59106;BME280;44891;50.204;8.132;2023-05-20T00:01:31;98685.28;;;12.69;67.76
59106;BME280;44891;50.204;8.132;2023-05-20T00:05:33;98681.59;;;12.53;67.78
59106;BME280;44891;50.204;8.132;2023-05-20T00:09:36;98678.50;;;12.56;68.16
59106;BME280;44891;50.204;8.132;2023-05-20T00:13:40;98676.75;;;12.62;67.42
59106;BME280;44891;50.204;8.132;2023-05-20T00:17:41;98666.69;;;12.42;68.09
59106;BME280;44891;50.204;8.132;2023-05-20T00:21:43;98668.19;;;12.55;68.18
59106;BME280;44891;50.204;8.132;2023-05-20T00:25:45;98670.91;;;12.43;68.78
59106;BME280;44891;50.204;8.132;2023-05-20T00:29:48;98671.31;;;12.35;69.30
59106;BME280;44891;50.204;8.132;2023-05-20T00:33:50;98667.84;;;12.17;71.26
59106;BME280;44891;50.204;8.132;2023-05-20T00:37:52;98672.97;;;12.41;70.56
59106;BME280;44891;50.204;8.132;2023-05-20T00:41:54;98658.59;;;12.32;69.80
59106;BME280;44891;50.204;8.132;2023-05-20T00:45:57;98665.63;;;12.43;69.75
59106;BME280;44891;50.204;8.132;2023-05-20T00:49:59;98665.06;;;12.41;67.78
59106;BME280;44891;50.204;8.132;2023-05-20T00:54:02;98662.53;;;12.63;67.39
59106;BME280;44891;50.204;8.132;2023-05-20T00:58:04;98660.59;;;12.75;66.42
59106;BME280;44891;50.204;8.132;2023-05-20T01:02:07;98656.13;;;12.59;69.41
59106;BME280;44891;50.204;8.132;2023-05-20T01:06:09;98650.78;;;12.53;70.20
59106;BME280;44891;50.204;8.132;2023-05-20T01:10:11;98652.59;;;12.53;69.86
59106;BME280;44891;50.204;8.132;2023-05-20T01:14:13;98653.50;;;12.59;70.87
59106;BME280;44891;50.204;8.132;2023-05-20T01:18:18;98648.94;;;12.54;71.57
59106;BME280;44891;50.204;8.132;2023-05-20T01:22:23;98646.53;;;12.52;71.96
59106;BME280;44891;50.204;8.132;2023-05-20T01:26:25;98647.97;;;12.27;71.93
59106;BME280;44891;50.204;8.132;2023-05-20T01:30:28;98639.44;;;12.36;72.62
59106;BME280;44891;50.204;8.132;2023-05-20T01:34:31;98639.19;;;12.38;71.76
59106;BME280;44891;50.204;8.132;2023-05-20T01:38:35;98643.94;;;12.36;73.02
59106;BME280;44891;50.204;8.132;2023-05-20T01:42:38;98643.44;;;12.22;73.38
59106;BME280;44891;50.204;8.132;2023-05-20T01:46:40;98631.72;;;12.30;72.60
59106;BME280;44891;50.204;8.132;2023-05-20T01:50:42;98630.34;;;12.27;72.84
59106;BME280;44891;50.204;8.132;2023-05-20T01:54:47;98634.09;;;12.31;72.46
59106;BME280;44891;50.204;8.132;2023-05-20T01:58:50;98634.88;;;12.32;73.00
59106;BME280;44891;50.204;8.132;2023-05-20T02:02:52;98640.56;;;12.23;73.60
59106;BME280;44891;50.204;8.132;2023-05-20T02:06:54;98634.06;;;12.14;74.38
59106;BME280;44891;50.204;8.132;2023-05-20T02:10:58;98630.97;;;12.17;74.57
59106;BME280;44891;50.204;8.132;2023-05-20T02:15:01;98628.34;;;12.17;74.87
59106;BME280;44891;50.204;8.132;2023-05-20T02:19:03;98625.75;;;12.06;75.38
59106;BME280;44891;50.204;8.132;2023-05-20T02:23:05;98627.31;;;12.18;75.29
59106;BME280;44891;50.204;8.132;2023-05-20T02:27:09;98628.25;;;12.12;75.75
59106;BME280;44891;50.204;8.132;2023-05-20T02:31:11;98623.22;;;12.11;75.96
59106;BME280;44891;50.204;8.132;2023-05-20T02:35:13;98618.28;;;12.14;76.41
59106;BME280;44891;50.204;8.132;2023-05-20T02:39:16;98619.22;;;12.08;76.33
59106;BME280;44891;50.204;8.132;2023-05-20T02:43:19;98619.69;;;12.05;76.17
59106;BME280;44891;50.204;8.132;2023-05-20T02:47:21;98616.59;;;12.08;75.37
59106;BME280;44891;50.204;8.132;2023-05-20T02:51:22;98611.75;;;12.17;75.90
59106;BME280;44891;50.204;8.132;2023-05-20T02:55:24;98609.50;;;12.09;75.98
59106;BME280;44891;50.204;8.132;2023-05-20T02:59:30;98615.56;;;12.09;76.28
59106;BME280;44891;50.204;8.132;2023-05-20T03:03:32;98617.31;;;12.04;77.55
59106;BME280;44891;50.204;8.132;2023-05-20T03:07:34;98612.69;;;12.11;77.32
59106;BME280;44891;50.204;8.132;2023-05-20T03:11:36;98611.88;;;11.93;77.58
59106;BME280;44891;50.204;8.132;2023-05-20T03:15:40;98612.13;;;11.80;78.08
59106;BME280;44891;50.204;8.132;2023-05-20T03:19:43;98606.44;;;11.83;79.38
59106;BME280;44891;50.204;8.132;2023-05-20T03:23:45;98603.22;;;11.81;79.16
59106;BME280;44891;50.204;8.132;2023-05-20T03:27:48;98611.31;;;11.80;79.82
59106;BME280;44891;50.204;8.132;2023-05-20T03:31:51;98608.19;;;11.66;79.56
59106;BME280;44891;50.204;8.132;2023-05-20T03:35:54;98606.59;;;11.65;80.86
59106;BME280;44891;50.204;8.132;2023-05-20T03:39:56;98605.25;;;11.62;80.82
59106;BME280;44891;50.204;8.132;2023-05-20T03:43:58;98609.53;;;11.68;80.52
59106;BME280;44891;50.204;8.132;2023-05-20T03:48:02;98606.50;;;11.60;81.26
59106;BME280;44891;50.204;8.132;2023-05-20T03:52:06;98596.06;;;11.65;80.62
59106;BME280;44891;50.204;8.132;2023-05-20T03:56:08;98597.34;;;11.62;80.06
59106;BME280;44891;50.204;8.132;2023-05-20T04:00:12;98607.69;;;11.81;79.36
59106;BME280;44891;50.204;8.132;2023-05-20T04:04:18;98605.75;;;11.76;79.45
59106;BME280;44891;50.204;8.132;2023-05-20T04:08:20;98606.44;;;11.83;79.46
59106;BME280;44891;50.204;8.132;2023-05-20T04:12:25;98610.66;;;12.01;78.83
59106;BME280;44891;50.204;8.132;2023-05-20T04:16:30;98607.97;;;12.13;78.58
59106;BME280;44891;50.204;8.132;2023-05-20T04:20:33;98597.03;;;12.21;78.25
59106;BME280;44891;50.204;8.132;2023-05-20T04:24:35;98594.66;;;12.19;78.69
59106;BME280;44891;50.204;8.132;2023-05-20T04:28:37;98594.03;;;12.29;78.02
59106;BME280;44891;50.204;8.132;2023-05-20T04:32:41;98587.88;;;12.40;77.95
59106;BME280;44891;50.204;8.132;2023-05-20T04:36:44;98595.63;;;12.47;77.54
59106;BME280;44891;50.204;8.132;2023-05-20T04:40:47;98598.66;;;12.56;77.15
59106;BME280;44891;50.204;8.132;2023-05-20T04:44:49;98603.34;;;12.53;77.16
59106;BME280;44891;50.204;8.132;2023-05-20T04:48:51;98594.91;;;12.51;77.65
59106;BME280;44891;50.204;8.132;2023-05-20T04:52:54;98595.22;;;12.55;77.68
59106;BME280;44891;50.204;8.132;2023-05-20T04:56:56;98598.97;;;12.59;77.93
59106;BME280;44891;50.204;8.132;2023-05-20T05:00:58;98555.00;;;12.43;77.17
59106;BME280;44891;50.204;8.132;2023-05-20T05:05:01;98601.00;;;12.74;76.63
59106;BME280;44891;50.204;8.132;2023-05-20T05:09:04;98593.34;;;12.72;76.59
59106;BME280;44891;50.204;8.132;2023-05-20T05:13:06;98585.19;;;12.74;76.91
59106;BME280;44891;50.204;8.132;2023-05-20T05:17:08;98592.38;;;12.78;76.67
59106;BME280;44891;50.204;8.132;2023-05-20T05:21:09;98583.34;;;12.91;76.49
59106;BME280;44891;50.204;8.132;2023-05-20T05:25:13;98579.41;;;12.94;76.06
59106;BME280;44891;50.204;8.132;2023-05-20T05:29:15;98573.94;;;13.00;76.82
59106;BME280;44891;50.204;8.132;2023-05-20T05:33:17;98571.69;;;13.09;76.28
59106;BME280;44891;50.204;8.132;2023-05-20T05:37:19;98577.44;;;13.23;76.07
59106;BME280;44891;50.204;8.132;2023-05-20T05:41:22;98576.38;;;13.24;76.48
59106;BME280;44891;50.204;8.132;2023-05-20T05:45:25;98567.50;;;13.30;76.07
59106;BME280;44891;50.204;8.132;2023-05-20T05:49:27;98565.91;;;13.29;76.11
59106;BME280;44891;50.204;8.132;2023-05-20T05:53:30;98564.84;;;13.30;76.55
59106;BME280;44891;50.204;8.132;2023-05-20T05:57:33;98559.63;;;13.35;75.39
59106;BME280;44891;50.204;8.132;2023-05-20T06:01:36;98566.97;;;13.33;76.03
59106;BME280;44891;50.204;8.132;2023-05-20T06:05:38;98562.75;;;13.32;76.55
59106;BME280;44891;50.204;8.132;2023-05-20T06:09:40;98559.25;;;13.48;75.89
59106;BME280;44891;50.204;8.132;2023-05-20T06:13:43;98556.31;;;13.45;76.06
59106;BME280;44891;50.204;8.132;2023-05-20T06:17:45;98559.13;;;13.38;76.15
59106;BME280;44891;50.204;8.132;2023-05-20T06:21:48;98559.19;;;13.43;76.45
59106;BME280;44891;50.204;8.132;2023-05-20T06:25:50;98563.16;;;13.68;76.33
59106;BME280;44891;50.204;8.132;2023-05-20T06:29:54;98560.06;;;13.76;74.95
59106;BME280;44891;50.204;8.132;2023-05-20T06:33:56;98544.91;;;13.66;75.47
59106;BME280;44891;50.204;8.132;2023-05-20T06:37:59;98549.69;;;13.69;75.60
59106;BME280;44891;50.204;8.132;2023-05-20T06:42:02;98548.50;;;13.55;76.45
59106;BME280;44891;50.204;8.132;2023-05-20T06:46:10;98545.66;;;13.62;76.20
59106;BME280;44891;50.204;8.132;2023-05-20T06:50:30;98551.69;;;13.57;76.59
59106;BME280;44891;50.204;8.132;2023-05-20T06:54:33;98549.97;;;13.46;77.25
59106;BME280;44891;50.204;8.132;2023-05-20T06:58:40;98540.81;;;13.53;77.75
59106;BME280;44891;50.204;8.132;2023-05-20T07:02:43;98535.59;;;13.58;77.25
59106;BME280;44891;50.204;8.132;2023-05-20T07:06:47;98537.22;;;13.65;77.41
59106;BME280;44891;50.204;8.132;2023-05-20T07:10:49;98530.97;;;13.71;77.23
59106;BME280;44891;50.204;8.132;2023-05-20T07:14:54;98532.34;;;13.78;76.73
59106;BME280;44891;50.204;8.132;2023-05-20T07:18:58;98532.66;;;13.82;76.79
59106;BME280;44891;50.204;8.132;2023-05-20T07:22:59;98537.25;;;13.97;76.97
59106;BME280;44891;50.204;8.132;2023-05-20T07:27:13;98523.59;;;14.05;75.85
59106;BME280;44891;50.204;8.132;2023-05-20T07:31:16;98520.03;;;14.21;76.23
59106;BME280;44891;50.204;8.132;2023-05-20T07:35:19;98524.28;;;14.27;75.24
59106;BME280;44891;50.204;8.132;2023-05-20T07:39:21;98527.03;;;14.42;74.52
59106;BME280;44891;50.204;8.132;2023-05-20T07:43:24;98517.78;;;14.45;74.58
59106;BME280;44891;50.204;8.132;2023-05-20T07:47:26;98515.78;;;14.57;73.77
59106;BME280;44891;50.204;8.132;2023-05-20T07:51:29;98513.22;;;14.78;73.77
59106;BME280;44891;50.204;8.132;2023-05-20T07:55:32;98504.22;;;14.74;73.30
59106;BME280;44891;50.204;8.132;2023-05-20T07:59:34;98505.63;;;14.86;73.26
59106;BME280;44891;50.204;8.132;2023-05-20T08:03:36;98506.28;;;15.34;71.94
59106;BME280;44891;50.204;8.132;2023-05-20T08:07:45;98503.69;;;15.70;71.43
59106;BME280;44891;50.204;8.132;2023-05-20T08:11:48;98498.16;;;15.76;71.17
59106;BME280;44891;50.204;8.132;2023-05-20T08:15:51;98498.94;;;15.87;69.96
59106;BME280;44891;50.204;8.132;2023-05-20T08:19:54;98461.88;;;15.77;70.29
59106;BME280;44891;50.204;8.132;2023-05-20T08:23:57;98485.97;;;16.11;69.72
59106;BME280;44891;50.204;8.132;2023-05-20T08:28:00;98478.22;;;16.40;67.63
59106;BME280;44891;50.204;8.132;2023-05-20T08:32:04;98489.03;;;16.54;67.21
59106;BME280;44891;50.204;8.132;2023-05-20T08:36:08;98502.53;;;16.68;66.86
59106;BME280;44891;50.204;8.132;2023-05-20T08:40:12;98489.03;;;16.54;67.64
59106;BME280;44891;50.204;8.132;2023-05-20T08:44:14;98486.84;;;16.81;65.84
59106;BME280;44891;50.204;8.132;2023-05-20T08:48:18;98481.03;;;16.69;66.96
59106;BME280;44891;50.204;8.132;2023-05-20T08:52:20;98489.41;;;17.02;65.37
59106;BME280;44891;50.204;8.132;2023-05-20T08:56:24;98493.25;;;16.70;65.48
59106;BME280;44891;50.204;8.132;2023-05-20T09:00:26;98492.13;;;16.92;65.94
59106;BME280;44891;50.204;8.132;2023-05-20T09:04:28;98488.19;;;16.69;66.93
59106;BME280;44891;50.204;8.132;2023-05-20T09:08:30;98492.66;;;16.89;66.33
59106;BME280;44891;50.204;8.132;2023-05-20T09:12:33;98489.06;;;17.19;64.75
59106;BME280;44891;50.204;8.132;2023-05-20T09:16:35;98481.31;;;17.66;64.79
59106;BME280;44891;50.204;8.132;2023-05-20T09:20:37;98477.31;;;17.69;62.97
59106;BME280;44891;50.204;8.132;2023-05-20T09:24:41;98481.47;;;17.85;63.41
59106;BME280;44891;50.204;8.132;2023-05-20T09:28:45;98483.38;;;18.09;63.46
59106;BME280;44891;50.204;8.132;2023-05-20T09:32:51;98453.31;;;17.84;63.61
59106;BME280;44891;50.204;8.132;2023-05-20T09:36:53;98480.22;;;18.07;62.99
59106;BME280;44891;50.204;8.132;2023-05-20T09:40:55;98476.91;;;17.91;63.35
59106;BME280;44891;50.204;8.132;2023-05-20T09:45:02;98489.44;;;18.14;63.09
59106;BME280;44891;50.204;8.132;2023-05-20T09:49:05;98485.88;;;17.95;62.00
59106;BME280;44891;50.204;8.132;2023-05-20T09:53:07;98485.38;;;17.93;61.75
59106;BME280;44891;50.204;8.132;2023-05-20T09:57:09;98475.53;;;17.93;62.20
59106;BME280;44891;50.204;8.132;2023-05-20T10:01:12;98474.16;;;18.30;62.72
59106;BME280;44891;50.204;8.132;2023-05-20T10:05:15;98475.91;;;18.64;61.58
59106;BME280;44891;50.204;8.132;2023-05-20T10:09:29;98468.25;;;18.33;61.62
59106;BME280;44891;50.204;8.132;2023-05-20T10:13:37;98458.34;;;18.39;61.09
59106;BME280;44891;50.204;8.132;2023-05-20T10:17:45;98450.53;;;18.95;60.72
59106;BME280;44891;50.204;8.132;2023-05-20T10:21:59;98450.34;;;18.87;59.75
59106;BME280;44891;50.204;8.132;2023-05-20T10:26:04;98447.91;;;18.71;59.44
59106;BME280;44891;50.204;8.132;2023-05-20T10:30:13;98454.00;;;18.24;61.12
59106;BME280;44891;50.204;8.132;2023-05-20T10:34:17;98470.63;;;18.59;60.33
59106;BME280;44891;50.204;8.132;2023-05-20T10:38:19;98454.47;;;18.31;61.73
59106;BME280;44891;50.204;8.132;2023-05-20T10:42:26;98463.88;;;18.71;61.86
59106;BME280;44891;50.204;8.132;2023-05-20T10:46:29;98474.75;;;17.93;61.26
59106;BME280;44891;50.204;8.132;2023-05-20T10:50:34;98463.59;;;17.96;62.56
59106;BME280;44891;50.204;8.132;2023-05-20T10:54:37;98462.09;;;18.09;61.45
59106;BME280;44891;50.204;8.132;2023-05-20T10:58:43;98455.78;;;18.05;62.08
59106;BME280;44891;50.204;8.132;2023-05-20T11:02:45;98465.38;;;17.72;63.63
59106;BME280;44891;50.204;8.132;2023-05-20T11:06:52;98456.38;;;17.62;64.00
59106;BME280;44891;50.204;8.132;2023-05-20T11:10:55;98457.97;;;17.63;64.08
59106;BME280;44891;50.204;8.132;2023-05-20T11:14:57;98464.56;;;17.76;64.12
59106;BME280;44891;50.204;8.132;2023-05-20T11:18:58;98457.50;;;18.19;63.19
59106;BME280;44891;50.204;8.132;2023-05-20T11:23:02;98450.94;;;18.60;62.23
59106;BME280;44891;50.204;8.132;2023-05-20T11:27:04;98443.59;;;18.76;60.88
59106;BME280;44891;50.204;8.132;2023-05-20T11:31:06;98432.59;;;19.20;59.15
59106;BME280;44891;50.204;8.132;2023-05-20T11:35:18;98431.97;;;18.90;59.44
59106;BME280;44891;50.204;8.132;2023-05-20T11:39:21;98419.41;;;19.47;58.07
59106;BME280;44891;50.204;8.132;2023-05-20T11:43:23;98403.66;;;19.97;57.46
59106;BME280;44891;50.204;8.132;2023-05-20T11:47:25;98419.16;;;19.30;57.29
59106;BME280;44891;50.204;8.132;2023-05-20T11:51:28;98396.84;;;19.91;56.35
59106;BME280;44891;50.204;8.132;2023-05-20T11:55:31;98395.97;;;20.37;56.41
59106;BME280;44891;50.204;8.132;2023-05-20T11:59:33;98392.31;;;20.19;55.15
59106;BME280;44891;50.204;8.132;2023-05-20T12:03:36;98399.28;;;19.74;56.58
59106;BME280;44891;50.204;8.132;2023-05-20T12:07:37;98388.06;;;19.91;56.54
59106;BME280;44891;50.204;8.132;2023-05-20T12:11:41;98394.84;;;19.69;57.23
59106;BME280;44891;50.204;8.132;2023-05-20T12:15:44;98395.88;;;19.54;57.70
59106;BME280;44891;50.204;8.132;2023-05-20T12:19:46;98390.91;;;19.48;56.13
59106;BME280;44891;50.204;8.132;2023-05-20T12:23:48;98381.94;;;20.04;55.72
59106;BME280;44891;50.204;8.132;2023-05-20T12:27:51;98385.69;;;20.58;54.40
59106;BME280;44891;50.204;8.132;2023-05-20T12:31:53;98385.00;;;20.25;55.00
59106;BME280;44891;50.204;8.132;2023-05-20T12:35:55;98375.41;;;20.65;54.49
59106;BME280;44891;50.204;8.132;2023-05-20T12:39:56;98361.69;;;21.16;53.78
59106;BME280;44891;50.204;8.132;2023-05-20T12:44:00;98358.16;;;20.85;53.14
59106;BME280;44891;50.204;8.132;2023-05-20T12:48:02;98371.34;;;20.81;53.06
59106;BME280;44891;50.204;8.132;2023-05-20T12:52:05;98362.41;;;20.50;53.79
59106;BME280;44891;50.204;8.132;2023-05-20T12:56:07;98374.25;;;19.89;54.88
59106;BME280;44891;50.204;8.132;2023-05-20T13:00:11;98360.22;;;19.50;55.61
59106;BME280;44891;50.204;8.132;2023-05-20T13:04:13;98384.53;;;19.30;57.02
59106;BME280;44891;50.204;8.132;2023-05-20T13:08:15;98379.59;;;18.86;58.52
59106;BME280;44891;50.204;8.132;2023-05-20T13:12:17;98375.13;;;19.19;58.41
59106;BME280;44891;50.204;8.132;2023-05-20T13:16:20;98373.38;;;19.61;57.02
59106;BME280;44891;50.204;8.132;2023-05-20T13:20:22;98375.63;;;20.27;56.69
59106;BME280;44891;50.204;8.132;2023-05-20T13:24:23;98350.06;;;20.54;54.51
59106;BME280;44891;50.204;8.132;2023-05-20T13:28:25;98364.06;;;20.32;54.83
59106;BME280;44891;50.204;8.132;2023-05-20T13:32:29;98366.03;;;19.85;55.27
59106;BME280;44891;50.204;8.132;2023-05-20T13:36:31;98352.13;;;19.74;55.42
59106;BME280;44891;50.204;8.132;2023-05-20T13:40:33;98355.38;;;19.99;55.77
59106;BME280;44891;50.204;8.132;2023-05-20T13:44:34;98355.50;;;20.49;54.77
59106;BME280;44891;50.204;8.132;2023-05-20T13:48:37;98346.50;;;19.76;55.37
59106;BME280;44891;50.204;8.132;2023-05-20T13:52:39;98339.78;;;19.46;56.92
59106;BME280;44891;50.204;8.132;2023-05-20T13:56:41;98345.81;;;19.84;56.11
59106;BME280;44891;50.204;8.132;2023-05-20T14:00:43;98339.28;;;20.18;54.38
59106;BME280;44891;50.204;8.132;2023-05-20T14:04:47;98341.44;;;20.29;55.10
59106;BME280;44891;50.204;8.132;2023-05-20T14:08:48;98324.59;;;20.70;53.04
59106;BME280;44891;50.204;8.132;2023-05-20T14:12:50;98328.28;;;20.47;54.28
59106;BME280;44891;50.204;8.132;2023-05-20T14:16:52;98328.09;;;20.57;53.66
59106;BME280;44891;50.204;8.132;2023-05-20T14:20:56;98319.06;;;20.67;53.69
59106;BME280;44891;50.204;8.132;2023-05-20T14:24:57;98313.66;;;20.94;52.88
59106;BME280;44891;50.204;8.132;2023-05-20T14:28:59;98306.66;;;20.84;53.65
59106;BME280;44891;50.204;8.132;2023-05-20T14:33:01;98315.75;;;21.06;52.82
59106;BME280;44891;50.204;8.132;2023-05-20T14:37:04;98314.78;;;21.24;51.59
59106;BME280;44891;50.204;8.132;2023-05-20T14:41:09;98301.47;;;21.55;51.12
59106;BME280;44891;50.204;8.132;2023-05-20T14:45:11;98301.59;;;21.28;52.79
59106;BME280;44891;50.204;8.132;2023-05-20T14:49:12;98288.38;;;21.23;51.84
59106;BME280;44891;50.204;8.132;2023-05-20T14:53:16;98294.78;;;21.13;52.52
59106;BME280;44891;50.204;8.132;2023-05-20T14:57:18;98293.66;;;20.91;52.71
59106;BME280;44891;50.204;8.132;2023-05-20T15:01:20;98294.28;;;20.52;53.44
59106;BME280;44891;50.204;8.132;2023-05-20T15:05:22;98293.03;;;20.36;54.52
59106;BME280;44891;50.204;8.132;2023-05-20T15:09:25;98291.25;;;20.31;55.42
59106;BME280;44891;50.204;8.132;2023-05-20T15:13:27;98290.94;;;20.60;54.10
59106;BME280;44891;50.204;8.132;2023-05-20T15:17:29;98295.84;;;20.89;53.33
59106;BME280;44891;50.204;8.132;2023-05-20T15:21:31;98291.06;;;21.00;53.47
59106;BME280;44891;50.204;8.132;2023-05-20T15:25:34;98289.97;;;20.79;53.93
59106;BME280;44891;50.204;8.132;2023-05-20T15:29:36;98301.22;;;20.53;54.02
59106;BME280;44891;50.204;8.132;2023-05-20T15:33:37;98288.22;;;20.97;53.70
59106;BME280;44891;50.204;8.132;2023-05-20T15:37:39;98292.47;;;21.20;53.35
59106;BME280;44891;50.204;8.132;2023-05-20T15:41:42;98280.59;;;21.12;53.02
59106;BME280;44891;50.204;8.132;2023-05-20T15:45:47;98279.41;;;20.96;53.11
59106;BME280;44891;50.204;8.132;2023-05-20T15:49:49;98288.03;;;21.15;52.70
59106;BME280;44891;50.204;8.132;2023-05-20T15:53:51;98276.84;;;20.91;53.48
59106;BME280;44891;50.204;8.132;2023-05-20T15:57:54;98289.44;;;21.13;53.30
59106;BME280;44891;50.204;8.132;2023-05-20T16:01:56;98288.88;;;20.80;53.88
59106;BME280;44891;50.204;8.132;2023-05-20T16:05:57;98279.84;;;20.67;53.87
59106;BME280;44891;50.204;8.132;2023-05-20T16:09:59;98272.66;;;20.40;54.41
59106;BME280;44891;50.204;8.132;2023-05-20T16:14:02;98259.28;;;20.68;54.53
59106;BME280;44891;50.204;8.132;2023-05-20T16:18:04;98279.38;;;20.51;54.84
59106;BME280;44891;50.204;8.132;2023-05-20T16:22:06;98288.66;;;20.40;55.11
59106;BME280;44891;50.204;8.132;2023-05-20T16:26:08;98288.03;;;19.79;56.08
59106;BME280;44891;50.204;8.132;2023-05-20T16:30:12;98280.25;;;19.69;56.98
59106;BME280;44891;50.204;8.132;2023-05-20T16:34:14;98286.06;;;19.85;56.58
59106;BME280;44891;50.204;8.132;2023-05-20T16:38:16;98289.75;;;19.89;56.30
59106;BME280;44891;50.204;8.132;2023-05-20T16:42:18;98288.66;;;19.76;57.05
59106;BME280;44891;50.204;8.132;2023-05-20T16:46:21;98279.03;;;19.48;57.83
59106;BME280;44891;50.204;8.132;2023-05-20T16:50:23;98293.31;;;19.52;57.39
59106;BME280;44891;50.204;8.132;2023-05-20T16:54:25;98288.06;;;19.33;57.88
59106;BME280;44891;50.204;8.132;2023-05-20T16:58:27;98284.91;;;19.31;57.96
59106;BME280;44891;50.204;8.132;2023-05-20T17:02:30;98290.25;;;19.31;58.42
59106;BME280;44891;50.204;8.132;2023-05-20T17:06:32;98293.53;;;19.09;58.51
59106;BME280;44891;50.204;8.132;2023-05-20T17:10:34;98296.72;;;18.92;58.89
59106;BME280;44891;50.204;8.132;2023-05-20T17:14:36;98298.47;;;18.83;59.58
59106;BME280;44891;50.204;8.132;2023-05-20T17:18:40;98303.84;;;18.59;59.62
59106;BME280;44891;50.204;8.132;2023-05-20T17:22:41;98295.94;;;18.54;60.46
59106;BME280;44891;50.204;8.132;2023-05-20T17:26:43;98310.19;;;18.63;60.15
59106;BME280;44891;50.204;8.132;2023-05-20T17:30:45;98308.88;;;18.61;61.12
59106;BME280;44891;50.204;8.132;2023-05-20T17:34:48;98307.44;;;18.50;61.18
59106;BME280;44891;50.204;8.132;2023-05-20T17:38:50;98312.03;;;18.44;61.62
59106;BME280;44891;50.204;8.132;2023-05-20T17:42:52;98315.34;;;18.36;61.96
59106;BME280;44891;50.204;8.132;2023-05-20T17:46:54;98312.47;;;18.32;62.58
59106;BME280;44891;50.204;8.132;2023-05-20T17:50:57;98312.91;;;18.15;62.84
59106;BME280;44891;50.204;8.132;2023-05-20T17:54:59;98304.31;;;18.05;63.40
59106;BME280;44891;50.204;8.132;2023-05-20T17:59:01;98306.63;;;17.87;64.42
59106;BME280;44891;50.204;8.132;2023-05-20T18:03:02;98314.97;;;17.76;65.43
59106;BME280;44891;50.204;8.132;2023-05-20T18:07:06;98316.00;;;17.80;65.61
59106;BME280;44891;50.204;8.132;2023-05-20T18:11:08;98310.47;;;17.76;65.93
59106;BME280;44891;50.204;8.132;2023-05-20T18:15:10;98312.38;;;17.71;66.52
59106;BME280;44891;50.204;8.132;2023-05-20T18:19:13;98317.63;;;17.76;66.68
59106;BME280;44891;50.204;8.132;2023-05-20T18:23:16;98311.56;;;17.70;67.09
59106;BME280;44891;50.204;8.132;2023-05-20T18:27:18;98311.56;;;17.70;67.63
59106;BME280;44891;50.204;8.132;2023-05-20T18:31:20;98311.22;;;17.53;67.90
59106;BME280;44891;50.204;8.132;2023-05-20T18:35:22;98323.28;;;17.40;68.61
59106;BME280;44891;50.204;8.132;2023-05-20T18:39:25;98310.59;;;17.32;68.99
59106;BME280;44891;50.204;8.132;2023-05-20T18:43:27;98314.41;;;17.21;69.75
59106;BME280;44891;50.204;8.132;2023-05-20T18:47:29;98316.31;;;17.15;70.48
59106;BME280;44891;50.204;8.132;2023-05-20T18:51:31;98322.22;;;17.07;71.30
59106;BME280;44891;50.204;8.132;2023-05-20T18:55:34;98325.19;;;17.00;70.97
59106;BME280;44891;50.204;8.132;2023-05-20T18:59:36;98324.22;;;16.91;71.91
59106;BME280;44891;50.204;8.132;2023-05-20T19:03:38;98335.03;;;16.95;71.55
59106;BME280;44891;50.204;8.132;2023-05-20T19:07:43;98331.13;;;16.87;72.01
59106;BME280;44891;50.204;8.132;2023-05-20T19:11:46;98328.28;;;16.78;72.70
59106;BME280;44891;50.204;8.132;2023-05-20T19:15:50;98328.56;;;16.67;73.69
59106;BME280;44891;50.204;8.132;2023-05-20T19:19:52;98329.09;;;16.64;73.66
59106;BME280;44891;50.204;8.132;2023-05-20T19:23:54;98325.41;;;16.65;73.99
59106;BME280;44891;50.204;8.132;2023-05-20T19:27:57;98316.72;;;16.54;74.60
59106;BME280;44891;50.204;8.132;2023-05-20T19:31:59;98325.78;;;16.43;75.03
59106;BME280;44891;50.204;8.132;2023-05-20T19:36:01;98332.16;;;16.37;75.73
59106;BME280;44891;50.204;8.132;2023-05-20T19:40:03;98332.72;;;16.34;75.67
59106;BME280;44891;50.204;8.132;2023-05-20T19:44:07;98341.25;;;16.25;76.39
59106;BME280;44891;50.204;8.132;2023-05-20T19:48:09;98339.66;;;16.24;76.34
59106;BME280;44891;50.204;8.132;2023-05-20T19:52:11;98338.31;;;16.27;76.52
59106;BME280;44891;50.204;8.132;2023-05-20T19:56:13;98329.59;;;16.16;76.90
59106;BME280;44891;50.204;8.132;2023-05-20T20:00:20;98339.69;;;16.09;77.52
59106;BME280;44891;50.204;8.132;2023-05-20T20:04:21;98342.63;;;16.13;77.59
59106;BME280;44891;50.204;8.132;2023-05-20T20:08:24;98340.78;;;16.08;78.03
59106;BME280;44891;50.204;8.132;2023-05-20T20:12:25;98340.53;;;15.99;78.60
59106;BME280;44891;50.204;8.132;2023-05-20T20:16:28;98338.91;;;16.03;78.70
59106;BME280;44891;50.204;8.132;2023-05-20T20:20:30;98336.06;;;15.90;79.06
59106;BME280;44891;50.204;8.132;2023-05-20T20:24:39;98334.47;;;15.94;79.19
59106;BME280;44891;50.204;8.132;2023-05-20T20:28:41;98332.59;;;15.94;79.43
59106;BME280;44891;50.204;8.132;2023-05-20T20:32:44;98330.75;;;15.90;79.67
59106;BME280;44891;50.204;8.132;2023-05-20T20:36:47;98338.97;;;15.93;79.67
59106;BME280;44891;50.204;8.132;2023-05-20T20:40:50;98336.59;;;15.92;79.79
59106;BME280;44891;50.204;8.132;2023-05-20T20:44:54;98334.47;;;15.89;79.89
59106;BME280;44891;50.204;8.132;2023-05-20T20:48:57;98324.94;;;15.93;79.71
59106;BME280;44891;50.204;8.132;2023-05-20T20:52:59;98327.09;;;15.81;80.53
59106;BME280;44891;50.204;8.132;2023-05-20T20:57:01;98329.75;;;15.70;81.62
59106;BME280;44891;50.204;8.132;2023-05-20T21:01:03;98323.13;;;15.78;81.07
59106;BME280;44891;50.204;8.132;2023-05-20T21:05:07;98317.56;;;15.59;82.44
59106;BME280;44891;50.204;8.132;2023-05-20T21:09:09;98312.00;;;15.56;82.69
59106;BME280;44891;50.204;8.132;2023-05-20T21:13:11;98307.78;;;15.55;83.15
59106;BME280;44891;50.204;8.132;2023-05-20T21:17:12;98305.66;;;15.57;82.73
59106;BME280;44891;50.204;8.132;2023-05-20T21:21:16;98309.13;;;15.52;83.38
59106;BME280;44891;50.204;8.132;2023-05-20T21:25:20;98300.91;;;15.48;83.59